الصفحة الرئيسية
METAR-TAF:

METAR-TAF

مطار :

مطار جوليوس نيريري

دار السلام, تنزانيا

دائرة عرض: 06-52S, خط طول: 039-12E, ارتفاع: 55 متر

مراقبة الطقس الحالي

تاريخ ووقت الإصدار 1ساعة و 17 دقيقة قبل الساعة 22:00UTC
رياح هادئة
درجة الحرارة 22°درجة مئوية
الرطوبة 94%
ضغط 1016 hPa
الرؤية 10 كم أو أكثر
غيوم قليلة على ارتفاع 1400 قدم

METAR: HTDA 242200Z 00000KT 9999 FEW014 22/21 Q1016 NOSIG

زمن: 02:17 (23:17 UTC)

توقعات

تاريخ ووقت الإصدار 6ساعات و 17 دقيقة قبل الساعة 17:00UTC
التوقعات صالحة من24 الساعة 18 UTC إلى 25 الساعة 24 UTC
ريح 10 عقدة من الشرق/الجنوب الشرقي
الرؤية 10 كم أو أكثر
غيوم متفرقة على ارتفاع 1600 قدم
أصبح
من 24 الساعة 22 UTC إلى 25 الساعة 02 UTC
ريح عقدة من الشمال
أصبح
من 25 الساعة 15 UTC إلى 25 الساعة 18 UTC
ريح 10 عقدة من الجنوب الشرقي
غيوم مفككة على ارتفاع 2000 قدم

TAF: HTDA 241700Z 2418/2524 11010KT 9999 SCT016 BECMG 2422/2502 00000KT BECMG 2515/2518 13010KT BKN020

أرصاد الطقس والتوقعات من أكثر من 4000 مطار (تقارير الطقس للمطار METAR والتنبؤ بالطقس بالمطارTAF).

المحطات المتاحة هي النقط الصفراء والحمراء على الخريطة.

حرك المؤشر فوق النقطة لمعرفة اسم المحطة.

ثم انقر لمعرفة أرصاد وتوقعات الطقس.

لتغيير الخارطة: اضغط على الأزرار الخضراء مع رمز الصليب الأسود للتكبير. على الزر الأخضر مع شرطة للتصغير، أو على الأسهم الخضراء للخرائط المجاورة.


METAR-TAF: